Flight Track Log - Related Links

Times and Time Zones

All times are in EDT time to prevent confusion due to time zone crossing. See the SLI2072 flight status page for this flight to view local times or setup timezone preferences in your user account.

Time Position Orientation Groundspeed Altitude Reporting Facility
EDT Latitude Longitude Course Direction KTS MPH feet Rate Location/Type
Mon 05:34:00 PM 19.7228 -99.7019 296° West  Level Estimated
Mon 05:35:00 PM 19.7798 -99.8281 296° West  Level Estimated
Mon 05:36:00 PM 19.8368 -99.9544 296° West  Level Estimated
Mon 05:37:00 PM 19.8936 -100.0808 296° West  Level Estimated
Mon 05:38:00 PM 19.9504 -100.2073 296° West  Level Estimated
Mon 05:39:00 PM 20.0071 -100.3339 295° West  Level Estimated
Mon 05:40:00 PM 20.0637 -100.4606 295° West  Level Estimated
Mon 05:41:00 PM 20.1202 -100.5874 295° West  Level Estimated
Mon 05:42:00 PM 20.1766 -100.7142 295° West  Level Estimated
Mon 05:43:00 PM 20.2329 -100.8412 295° West  Level Estimated
Mon 05:44:00 PM 20.2891 -100.9682 295° West  Level Estimated
Mon 05:45:00 PM 20.3452 -101.0954 295° West  Level Estimated
Mon 05:46:00 PM 20.4013 -101.2226 295° West  Level Estimated
Mon 05:47:00 PM 20.4572 -101.3499 295° West  Level Estimated
Mon 05:48:00 PM 20.5131 -101.4773 295° West  Level Estimated
Mon 05:49:00 PM 20.5689 -101.6049 295° West  Level Estimated
Mon 05:50:00 PM 20.6245 -101.7325 295° West  Level Estimated
Mon 05:51:00 PM 20.6801 -101.8602 295° West  Level Estimated
Mon 05:52:00 PM 20.7356 -101.9879 295° West  Level Estimated
Mon 05:53:00 PM 20.7910 -102.1158 295° West  Level Estimated
Mon 05:54:00 PM 20.8463 -102.2438 295° West  Level Estimated
Mon 05:55:00 PM 20.9015 -102.3719 295° West  Level Estimated
Mon 05:56:00 PM 20.9566 -102.5000 295° West  Level Estimated
Mon 05:57:00 PM 21.0116 -102.6283 295° West  Level Estimated
Mon 05:58:00 PM 21.0665 -102.7566 295° West  Level Estimated
Mon 05:59:00 PM 21.1213 -102.8851 295° West  Level Estimated
Mon 06:00:00 PM 21.1760 -103.0136 295° West  Level Estimated
Mon 06:01:00 PM 21.2306 -103.1423 295° West  Level Estimated
Mon 06:02:00 PM 21.2852 -103.2710 294° West  Level Estimated
Mon 06:03:00 PM 21.3396 -103.3998 294° West  Level Estimated
Mon 06:04:00 PM 21.3939 -103.5287 294° West  Level Estimated
Mon 06:05:00 PM 21.4481 -103.6578 294° West  Level Estimated
Mon 06:06:00 PM 21.5023 -103.7869 294° West  Level Estimated
Mon 06:07:00 PM 21.5563 -103.9161 294° West  Level Estimated
Mon 06:08:00 PM 21.6102 -104.0454 294° West  Level Estimated
Mon 06:09:00 PM 21.6640 -104.1748 294° West  Level Estimated
Mon 06:10:00 PM 21.7178 -104.3043 294° West  Level Estimated
Mon 06:11:00 PM 21.7714 -104.4339 294° West  Level Estimated
Mon 06:12:00 PM 21.8249 -104.5636 294° West  Level Estimated
Mon 06:13:00 PM 21.8784 -104.6934 294° West  Level Estimated
Mon 06:14:00 PM 21.9317 -104.8233 294° West  Level Estimated
Mon 06:15:00 PM 21.9849 -104.9533 294° West  Level Estimated
Mon 06:16:00 PM 22.0380 -105.0834 294° West  Level Estimated
Mon 06:17:00 PM 22.0910 -105.2135 294° West  Level Estimated
Mon 06:18:00 PM 22.1439 -105.3438 294° West  Level Estimated
Mon 06:19:00 PM 22.1968 -105.4742 294° West  Level Estimated
Mon 06:20:00 PM 22.2495 -105.6047 294° West  Level Estimated
Mon 06:21:00 PM 22.3021 -105.7352 294° West  Level Estimated
Mon 06:22:00 PM 22.3546 -105.8659 294° West  Level Estimated
Mon 06:23:00 PM 22.4070 -105.9967 293° West  Level Estimated
Mon 06:24:00 PM 22.4592 -106.1275 293° West  Level Estimated
Mon 06:25:00 PM 22.5114 -106.2585 293° West  Level Estimated
Mon 06:26:00 PM 22.5635 -106.3896 293° West  Level Estimated
Mon 06:27:00 PM 22.6155 -106.5207 293° West  Level Estimated
Mon 06:28:00 PM 22.6673 -106.6520 293° West  Level Estimated
Mon 06:29:00 PM 22.7191 -106.7834 293° West  Level Estimated
Mon 06:30:00 PM 22.7707 -106.9148 293° West  Level Estimated
Mon 06:31:00 PM 22.8223 -107.0464 293° West  Level Estimated
Mon 06:32:00 PM 22.8737 -107.1780 293° West  Level Estimated
Mon 06:33:00 PM 22.9250 -107.3098 293° West  Level Estimated
Mon 06:34:00 PM 22.9762 -107.4417 293° West  Level Estimated
Mon 06:35:00 PM 23.0273 -107.5736 293° West  Level Estimated
Mon 06:36:00 PM 23.0783 -107.7057 293° West  Level Estimated
Mon 06:37:00 PM 23.1292 -107.8378 293° West  Level Estimated
Mon 06:38:00 PM 23.1800 -107.9701 293° West  Level Estimated
Mon 06:39:00 PM 23.2307 -108.1025 293° West  Level Estimated
Mon 06:40:00 PM 23.2812 -108.2349 293° West  Level Estimated
Mon 06:41:00 PM 23.3317 -108.3675 293° West  Level Estimated
Mon 06:42:00 PM 23.3820 -108.5001 292° West  Level Estimated
Mon 06:43:00 PM 23.4322 -108.6329 292° West  Level Estimated
Mon 06:44:00 PM 23.4823 -108.7658 292° West  Level Estimated
Mon 06:45:00 PM 23.5323 -108.8987 292° West  Level Estimated
Mon 06:46:00 PM 23.5822 -109.0318 292° West  Level Estimated
Mon 06:47:00 PM 23.6320 -109.1650 292° West  Level Estimated
Mon 06:48:00 PM 23.6816 -109.2982 292° West  Level Estimated
Mon 06:49:00 PM 23.7311 -109.4316 292° West  Level Estimated
Mon 06:50:00 PM 23.7806 -109.5651 292° West  Level Estimated
Mon 06:51:00 PM 23.8299 -109.6986 292° West  Level Estimated
Mon 06:52:00 PM 23.8791 -109.8323 292° West  Level Estimated
Mon 06:53:00 PM 23.9282 -109.9661 292° West  Level Estimated
Mon 06:54:00 PM 23.9771 -110.1000 292° West  Level Estimated
Mon 06:55:00 PM 24.0260 -110.2339 292° West  Level Estimated
Mon 06:56:00 PM 24.0727 -110.3625 292° West  Level Estimated
Mon 06:57:00 PM 24.0727 -110.3625 49° Northeast  Level Estimated
Mon 06:58:00 PM 24.0727 -110.3625 49° Northeast  Level Estimated
Mon 06:59:00 PM 24.0727 -110.3625 49° Northeast  Level Estimated
Mon 07:00:00 PM 24.0727 -110.3625 49° Northeast  Level Estimated
Mon 07:01:00 PM 24.0727 -110.3625 49° Northeast  Level Estimated
Mon 07:02:00 PM 24.0727 -110.3625 49° Northeast  Level Estimated
Mon 07:03:00 PM 24.0727 -110.3625 49° Northeast  Level Estimated
Mon 07:04:00 PM 24.0727 -110.3625 49° Northeast  Level Estimated
Mon 07:05:00 PM 24.0727 -110.3625 49° Northeast  Level Estimated
Mon 07:06:00 PM 24.0727 -110.3625 49° Northeast  Level Estimated
Mon 07:07:00 PM 24.0727 -110.3625 49° Northeast  Level Estimated
Mon 07:08:00 PM 24.0727 -110.3625 49° Northeast  Level Estimated
Mon 07:09:00 PM 24.0727 -110.3625 49° Northeast  Level Estimated
Mon 07:10:00 PM 24.0727 -110.3625 49° Northeast  Level Estimated
Mon 07:11:00 PM 24.0727 -110.3625 49° Northeast  Level Estimated
Mon 07:12:00 PM 24.0727 -110.3625 49° Northeast  Level Estimated

Login

Don't have an account? Register now (free) for customized features, flight alerts, and more!